sensor_id;sensor_type;location;lat;lon;timestamp;pressure;altitude;pressure_sealevel;temperature;humidity
19114;BME280;9689;51.052;13.772;2023-10-19T00:03:31;99036.16;;;8.33;63.81
19114;BME280;9689;51.052;13.772;2023-10-19T00:08:33;99035.28;;;8.35;64.68
19114;BME280;9689;51.052;13.772;2023-10-19T00:13:41;99028.38;;;8.33;63.76
19114;BME280;9689;51.052;13.772;2023-10-19T00:18:45;99022.28;;;8.34;63.77
19114;BME280;9689;51.052;13.772;2023-10-19T00:23:50;99009.34;;;8.32;64.31
19114;BME280;9689;51.052;13.772;2023-10-19T00:28:51;98998.22;;;8.29;64.64
19114;BME280;9689;51.052;13.772;2023-10-19T00:33:57;99002.38;;;8.36;64.87
19114;BME280;9689;51.052;13.772;2023-10-19T00:38:58;98995.53;;;8.32;63.80
19114;BME280;9689;51.052;13.772;2023-10-19T00:44:00;98995.66;;;8.29;63.95
19114;BME280;9689;51.052;13.772;2023-10-19T00:49:11;98987.75;;;8.32;63.84
19114;BME280;9689;51.052;13.772;2023-10-19T00:54:17;98979.63;;;8.42;64.23
19114;BME280;9689;51.052;13.772;2023-10-19T00:59:26;98976.13;;;8.45;63.99
19114;BME280;9689;51.052;13.772;2023-10-19T01:04:31;98965.50;;;8.51;62.95
19114;BME280;9689;51.052;13.772;2023-10-19T01:09:34;98957.03;;;8.46;63.86
19114;BME280;9689;51.052;13.772;2023-10-19T01:14:36;98949.78;;;8.56;63.24
19114;BME280;9689;51.052;13.772;2023-10-19T01:19:39;98943.09;;;8.48;63.70
19114;BME280;9689;51.052;13.772;2023-10-19T01:24:42;98927.22;;;8.58;62.90
19114;BME280;9689;51.052;13.772;2023-10-19T01:29:43;98920.81;;;8.68;63.18
19114;BME280;9689;51.052;13.772;2023-10-19T01:34:44;98920.78;;;8.69;63.08
19114;BME280;9689;51.052;13.772;2023-10-19T01:39:46;98924.81;;;8.78;63.31
19114;BME280;9689;51.052;13.772;2023-10-19T01:44:47;98916.03;;;8.81;63.48
19114;BME280;9689;51.052;13.772;2023-10-19T01:49:48;98915.72;;;8.90;62.72
19114;BME280;9689;51.052;13.772;2023-10-19T01:54:53;98908.56;;;8.96;62.03
19114;BME280;9689;51.052;13.772;2023-10-19T01:59:59;98895.44;;;8.99;62.22
19114;BME280;9689;51.052;13.772;2023-10-19T02:05:10;98876.47;;;8.97;62.86
19114;BME280;9689;51.052;13.772;2023-10-19T02:10:17;98876.34;;;9.00;63.23
19114;BME280;9689;51.052;13.772;2023-10-19T02:15:19;98862.94;;;9.13;62.25
19114;BME280;9689;51.052;13.772;2023-10-19T02:20:22;98845.88;;;9.05;62.89
19114;BME280;9689;51.052;13.772;2023-10-19T02:25:40;98831.22;;;9.03;63.30
19114;BME280;9689;51.052;13.772;2023-10-19T02:30:42;98828.31;;;9.12;62.70
19114;BME280;9689;51.052;13.772;2023-10-19T02:35:44;98818.13;;;9.06;62.65
19114;BME280;9689;51.052;13.772;2023-10-19T02:40:48;98813.78;;;9.06;63.17
19114;BME280;9689;51.052;13.772;2023-10-19T02:45:49;98792.00;;;9.09;63.19
19114;BME280;9689;51.052;13.772;2023-10-19T02:50:53;98771.28;;;9.07;63.40
19114;BME280;9689;51.052;13.772;2023-10-19T02:55:55;98771.28;;;9.07;63.11
19114;BME280;9689;51.052;13.772;2023-10-19T03:00:59;98764.19;;;9.13;63.04
19114;BME280;9689;51.052;13.772;2023-10-19T03:06:00;98766.25;;;9.03;62.95
19114;BME280;9689;51.052;13.772;2023-10-19T03:11:04;98754.06;;;9.05;63.76
19114;BME280;9689;51.052;13.772;2023-10-19T03:16:07;98757.59;;;9.04;65.41
19114;BME280;9689;51.052;13.772;2023-10-19T03:21:09;98745.88;;;8.70;68.32
19114;BME280;9689;51.052;13.772;2023-10-19T03:26:12;98741.97;;;8.59;70.01
19114;BME280;9689;51.052;13.772;2023-10-19T03:31:25;98758.06;;;8.45;71.46
19114;BME280;9689;51.052;13.772;2023-10-19T03:36:26;98760.13;;;8.35;72.55
19114;BME280;9689;51.052;13.772;2023-10-19T03:41:28;98774.00;;;8.34;73.65
19114;BME280;9689;51.052;13.772;2023-10-19T03:46:30;98764.88;;;8.22;74.58
19114;BME280;9689;51.052;13.772;2023-10-19T03:51:31;98754.88;;;8.12;76.24
19114;BME280;9689;51.052;13.772;2023-10-19T03:56:51;98766.47;;;8.02;76.91
19114;BME280;9689;51.052;13.772;2023-10-19T04:01:52;98761.44;;;7.97;78.09
19114;BME280;9689;51.052;13.772;2023-10-19T04:06:53;98769.56;;;7.86;79.71
19114;BME280;9689;51.052;13.772;2023-10-19T04:11:59;98772.03;;;7.91;80.86
19114;BME280;9689;51.052;13.772;2023-10-19T04:17:02;98764.03;;;7.97;83.47
19114;BME280;9689;51.052;13.772;2023-10-19T04:22:05;98751.56;;;8.32;84.97
19114;BME280;9689;51.052;13.772;2023-10-19T04:27:08;98729.41;;;7.98;85.31
19114;BME280;9689;51.052;13.772;2023-10-19T04:32:09;98742.03;;;7.57;88.27
19114;BME280;9689;51.052;13.772;2023-10-19T04:37:13;98729.25;;;7.25;92.52
19114;BME280;9689;51.052;13.772;2023-10-19T04:42:19;98754.00;;;7.07;94.56
19114;BME280;9689;51.052;13.772;2023-10-19T04:47:22;98760.31;;;6.98;96.41
19114;BME280;9689;51.052;13.772;2023-10-19T04:52:26;98749.28;;;6.92;97.92
19114;BME280;9689;51.052;13.772;2023-10-19T04:57:28;98743.06;;;6.97;99.19
19114;BME280;9689;51.052;13.772;2023-10-19T05:02:30;98743.44;;;6.85;99.80
19114;BME280;9689;51.052;13.772;2023-10-19T05:07:31;98744.59;;;6.75;100.00
19114;BME280;9689;51.052;13.772;2023-10-19T05:12:34;98732.28;;;6.83;100.00
19114;BME280;9689;51.052;13.772;2023-10-19T05:17:35;98729.69;;;6.83;100.00
19114;BME280;9689;51.052;13.772;2023-10-19T05:22:36;98721.03;;;6.84;100.00
19114;BME280;9689;51.052;13.772;2023-10-19T05:27:39;98707.19;;;6.85;100.00
19114;BME280;9689;51.052;13.772;2023-10-19T05:32:42;98713.31;;;6.83;100.00
19114;BME280;9689;51.052;13.772;2023-10-19T05:37:43;98701.31;;;6.80;100.00
19114;BME280;9689;51.052;13.772;2023-10-19T05:42:45;98715.94;;;6.81;100.00
19114;BME280;9689;51.052;13.772;2023-10-19T05:47:46;98712.69;;;6.74;100.00
19114;BME280;9689;51.052;13.772;2023-10-19T05:52:47;98714.03;;;6.86;100.00
19114;BME280;9689;51.052;13.772;2023-10-19T05:57:50;98704.03;;;6.75;100.00
19114;BME280;9689;51.052;13.772;2023-10-19T06:02:52;98703.94;;;6.78;100.00
19114;BME280;9689;51.052;13.772;2023-10-19T06:07:53;98705.53;;;6.83;100.00
19114;BME280;9689;51.052;13.772;2023-10-19T06:12:56;98707.16;;;6.87;100.00
19114;BME280;9689;51.052;13.772;2023-10-19T06:17:57;98718.53;;;6.81;100.00
19114;BME280;9689;51.052;13.772;2023-10-19T06:22:59;98720.84;;;6.90;100.00
19114;BME280;9689;51.052;13.772;2023-10-19T06:28:05;98725.34;;;6.84;100.00
19114;BME280;9689;51.052;13.772;2023-10-19T06:33:07;98731.16;;;6.92;100.00
19114;BME280;9689;51.052;13.772;2023-10-19T06:38:08;98730.13;;;6.97;100.00
19114;BME280;9689;51.052;13.772;2023-10-19T06:43:10;98712.84;;;6.98;100.00
19114;BME280;9689;51.052;13.772;2023-10-19T06:48:11;98711.84;;;7.02;100.00
19114;BME280;9689;51.052;13.772;2023-10-19T06:53:12;98718.38;;;6.87;100.00
19114;BME280;9689;51.052;13.772;2023-10-19T06:58:14;98706.09;;;6.92;100.00
19114;BME280;9689;51.052;13.772;2023-10-19T07:03:19;98708.34;;;7.03;100.00
19114;BME280;9689;51.052;13.772;2023-10-19T07:08:20;98709.13;;;7.06;100.00
19114;BME280;9689;51.052;13.772;2023-10-19T07:13:23;98694.78;;;6.96;100.00
19114;BME280;9689;51.052;13.772;2023-10-19T07:18:23;98689.25;;;7.07;100.00
19114;BME280;9689;51.052;13.772;2023-10-19T07:23:24;98693.72;;;7.02;100.00
19114;BME280;9689;51.052;13.772;2023-10-19T07:28:27;98692.53;;;7.12;100.00
19114;BME280;9689;51.052;13.772;2023-10-19T07:33:28;98695.09;;;7.14;100.00
19114;BME280;9689;51.052;13.772;2023-10-19T07:38:30;98697.69;;;7.14;100.00
19114;BME280;9689;51.052;13.772;2023-10-19T07:43:34;98686.47;;;7.13;100.00
19114;BME280;9689;51.052;13.772;2023-10-19T07:48:35;98699.19;;;7.19;100.00
19114;BME280;9689;51.052;13.772;2023-10-19T07:53:36;98711.47;;;7.14;100.00
19114;BME280;9689;51.052;13.772;2023-10-19T07:58:38;98705.56;;;7.09;100.00
19114;BME280;9689;51.052;13.772;2023-10-19T08:03:41;98702.44;;;7.26;100.00
19114;BME280;9689;51.052;13.772;2023-10-19T08:08:42;98699.75;;;7.29;100.00
19114;BME280;9689;51.052;13.772;2023-10-19T08:13:44;98694.53;;;7.30;100.00
19114;BME280;9689;51.052;13.772;2023-10-19T08:18:45;98686.66;;;7.33;100.00
19114;BME280;9689;51.052;13.772;2023-10-19T08:23:46;98677.09;;;7.35;100.00
19114;BME280;9689;51.052;13.772;2023-10-19T08:28:48;98670.09;;;7.37;100.00
19114;BME280;9689;51.052;13.772;2023-10-19T08:33:49;98663.09;;;7.41;100.00
19114;BME280;9689;51.052;13.772;2023-10-19T08:38:50;98656.00;;;7.46;100.00
19114;BME280;9689;51.052;13.772;2023-10-19T08:43:55;98650.50;;;7.55;100.00
19114;BME280;9689;51.052;13.772;2023-10-19T08:48:56;98641.66;;;7.61;100.00
19114;BME280;9689;51.052;13.772;2023-10-19T08:53:59;98643.53;;;7.57;100.00
19114;BME280;9689;51.052;13.772;2023-10-19T08:59:02;98641.41;;;7.69;100.00
19114;BME280;9689;51.052;13.772;2023-10-19T09:04:04;98642.84;;;7.52;100.00
19114;BME280;9689;51.052;13.772;2023-10-19T09:09:06;98630.91;;;7.72;100.00
19114;BME280;9689;51.052;13.772;2023-10-19T09:14:10;98616.63;;;7.85;100.00
19114;BME280;9689;51.052;13.772;2023-10-19T09:19:12;98601.94;;;8.07;100.00
19114;BME280;9689;51.052;13.772;2023-10-19T09:24:14;98616.59;;;8.10;99.63
19114;BME280;9689;51.052;13.772;2023-10-19T09:29:18;98620.59;;;8.18;99.14
19114;BME280;9689;51.052;13.772;2023-10-19T09:34:19;98601.09;;;8.54;99.04
19114;BME280;9689;51.052;13.772;2023-10-19T09:39:21;98603.22;;;8.88;96.57
19114;BME280;9689;51.052;13.772;2023-10-19T09:44:28;98602.84;;;9.17;95.22
19114;BME280;9689;51.052;13.772;2023-10-19T09:49:34;98594.78;;;9.03;93.58
19114;BME280;9689;51.052;13.772;2023-10-19T09:54:42;98593.38;;;9.16;94.55
19114;BME280;9689;51.052;13.772;2023-10-19T09:59:51;98591.19;;;9.48;93.01
19114;BME280;9689;51.052;13.772;2023-10-19T10:04:55;98587.66;;;9.28;91.57
19114;BME280;9689;51.052;13.772;2023-10-19T10:09:57;98588.03;;;8.99;92.78
19114;BME280;9689;51.052;13.772;2023-10-19T10:15:01;98577.47;;;9.24;92.63
19114;BME280;9689;51.052;13.772;2023-10-19T10:20:30;98574.97;;;9.21;93.28
19114;BME280;9689;51.052;13.772;2023-10-19T10:25:34;98555.38;;;9.14;93.35
19114;BME280;9689;51.052;13.772;2023-10-19T10:30:36;98540.31;;;9.22;93.58
19114;BME280;9689;51.052;13.772;2023-10-19T10:35:55;98528.31;;;9.38;92.64
19114;BME280;9689;51.052;13.772;2023-10-19T10:40:56;98527.41;;;9.39;91.83
19114;BME280;9689;51.052;13.772;2023-10-19T10:46:05;98521.31;;;9.40;92.22
19114;BME280;9689;51.052;13.772;2023-10-19T10:51:15;98520.59;;;9.55;91.72
19114;BME280;9689;51.052;13.772;2023-10-19T10:56:16;98518.47;;;9.65;90.34
19114;BME280;9689;51.052;13.772;2023-10-19T11:01:29;98502.88;;;9.84;89.58
19114;BME280;9689;51.052;13.772;2023-10-19T11:06:30;98503.63;;;10.05;88.74
19114;BME280;9689;51.052;13.772;2023-10-19T11:11:36;98505.44;;;10.22;85.93
19114;BME280;9689;51.052;13.772;2023-10-19T11:16:40;98490.59;;;10.05;85.95
19114;BME280;9689;51.052;13.772;2023-10-19T11:21:53;98498.28;;;10.08;86.60
19114;BME280;9689;51.052;13.772;2023-10-19T11:26:59;98492.00;;;10.12;87.11
19114;BME280;9689;51.052;13.772;2023-10-19T11:32:01;98478.50;;;10.23;86.57
19114;BME280;9689;51.052;13.772;2023-10-19T11:37:02;98477.38;;;10.28;85.98
19114;BME280;9689;51.052;13.772;2023-10-19T11:42:04;98479.53;;;10.37;85.86
19114;BME280;9689;51.052;13.772;2023-10-19T11:47:07;98490.56;;;10.25;85.23
19114;BME280;9689;51.052;13.772;2023-10-19T11:52:08;98477.81;;;10.55;84.21
19114;BME280;9689;51.052;13.772;2023-10-19T11:57:09;98477.97;;;10.52;84.75
19114;BME280;9689;51.052;13.772;2023-10-19T12:02:13;98479.94;;;10.47;84.37
19114;BME280;9689;51.052;13.772;2023-10-19T12:07:18;98477.38;;;10.28;86.03
19114;BME280;9689;51.052;13.772;2023-10-19T12:12:19;98481.69;;;10.46;84.48
19114;BME280;9689;51.052;13.772;2023-10-19T12:17:21;98474.03;;;10.26;86.08
19114;BME280;9689;51.052;13.772;2023-10-19T12:22:26;98478.44;;;10.24;85.17
19114;BME280;9689;51.052;13.772;2023-10-19T12:27:32;98473.38;;;10.02;86.83
19114;BME280;9689;51.052;13.772;2023-10-19T12:32:34;98459.19;;;10.09;86.17
19114;BME280;9689;51.052;13.772;2023-10-19T12:37:36;98459.34;;;10.42;85.05
19114;BME280;9689;51.052;13.772;2023-10-19T12:42:42;98459.47;;;10.39;84.93
19114;BME280;9689;51.052;13.772;2023-10-19T12:47:45;98455.38;;;10.70;84.49
19114;BME280;9689;51.052;13.772;2023-10-19T12:52:46;98449.63;;;10.63;85.08
19114;BME280;9689;51.052;13.772;2023-10-19T12:57:47;98453.28;;;10.76;83.53
19114;BME280;9689;51.052;13.772;2023-10-19T13:02:52;98443.78;;;10.58;85.40
19114;BME280;9689;51.052;13.772;2023-10-19T13:07:59;98430.94;;;10.72;85.51
19114;BME280;9689;51.052;13.772;2023-10-19T13:13:01;98427.69;;;10.85;84.60
19114;BME280;9689;51.052;13.772;2023-10-19T13:18:07;98415.81;;;11.29;83.90
19114;BME280;9689;51.052;13.772;2023-10-19T13:23:10;98404.38;;;11.79;81.06
19114;BME280;9689;51.052;13.772;2023-10-19T13:28:12;98398.84;;;11.85;80.29
19114;BME280;9689;51.052;13.772;2023-10-19T13:33:15;98396.03;;;12.20;78.71
19114;BME280;9689;51.052;13.772;2023-10-19T13:38:17;98396.06;;;12.04;78.33
19114;BME280;9689;51.052;13.772;2023-10-19T13:43:19;98383.63;;;12.24;77.63
19114;BME280;9689;51.052;13.772;2023-10-19T13:48:22;98389.13;;;12.19;77.57
19114;BME280;9689;51.052;13.772;2023-10-19T13:53:23;98386.38;;;12.36;77.43
19114;BME280;9689;51.052;13.772;2023-10-19T13:58:24;98366.69;;;12.31;77.54
19114;BME280;9689;51.052;13.772;2023-10-19T14:03:27;98378.34;;;12.25;77.30
19114;BME280;9689;51.052;13.772;2023-10-19T14:08:29;98369.75;;;12.07;77.95
19114;BME280;9689;51.052;13.772;2023-10-19T14:13:33;98372.66;;;11.71;79.21
19114;BME280;9689;51.052;13.772;2023-10-19T14:18:37;98379.72;;;11.53;80.01
19114;BME280;9689;51.052;13.772;2023-10-19T14:23:38;98367.69;;;11.67;80.47
19114;BME280;9689;51.052;13.772;2023-10-19T14:28:40;98368.03;;;11.60;80.66
19114;BME280;9689;51.052;13.772;2023-10-19T14:33:43;98372.66;;;11.55;80.97
19114;BME280;9689;51.052;13.772;2023-10-19T14:38:43;98365.41;;;11.76;80.68
19114;BME280;9689;51.052;13.772;2023-10-19T14:43:46;98363.63;;;11.45;81.77
19114;BME280;9689;51.052;13.772;2023-10-19T14:48:49;98355.31;;;11.70;81.79
19114;BME280;9689;51.052;13.772;2023-10-19T14:53:50;98358.84;;;11.69;82.01
19114;BME280;9689;51.052;13.772;2023-10-19T14:58:51;98357.16;;;11.52;82.27
19114;BME280;9689;51.052;13.772;2023-10-19T15:03:55;98359.94;;;11.33;82.09
19114;BME280;9689;51.052;13.772;2023-10-19T15:08:56;98361.53;;;11.36;82.29
19114;BME280;9689;51.052;13.772;2023-10-19T15:13:57;98353.81;;;11.50;82.83
19114;BME280;9689;51.052;13.772;2023-10-19T15:19:09;98346.75;;;11.52;83.58
19114;BME280;9689;51.052;13.772;2023-10-19T15:24:11;98356.19;;;11.39;83.65
19114;BME280;9689;51.052;13.772;2023-10-19T15:29:12;98355.75;;;11.31;83.45
19114;BME280;9689;51.052;13.772;2023-10-19T15:34:15;98347.91;;;11.15;84.92
19114;BME280;9689;51.052;13.772;2023-10-19T15:39:19;98346.47;;;11.10;84.35
19114;BME280;9689;51.052;13.772;2023-10-19T15:44:22;98354.69;;;11.02;84.74
19114;BME280;9689;51.052;13.772;2023-10-19T15:49:26;98367.31;;;10.76;85.43
19114;BME280;9689;51.052;13.772;2023-10-19T15:54:30;98355.16;;;10.60;86.00
19114;BME280;9689;51.052;13.772;2023-10-19T15:59:31;98357.19;;;10.37;86.19
19114;BME280;9689;51.052;13.772;2023-10-19T16:04:33;98357.94;;;10.22;87.66
19114;BME280;9689;51.052;13.772;2023-10-19T16:09:34;98354.22;;;10.09;88.39
19114;BME280;9689;51.052;13.772;2023-10-19T16:14:35;98359.81;;;10.01;88.59
19114;BME280;9689;51.052;13.772;2023-10-19T16:19:37;98360.09;;;9.95;90.47
19114;BME280;9689;51.052;13.772;2023-10-19T16:24:38;98352.59;;;9.89;90.12
19114;BME280;9689;51.052;13.772;2023-10-19T16:29:39;98349.03;;;10.09;90.22
19114;BME280;9689;51.052;13.772;2023-10-19T16:34:42;98352.13;;;9.98;89.49
19114;BME280;9689;51.052;13.772;2023-10-19T16:39:43;98355.06;;;9.92;89.38
19114;BME280;9689;51.052;13.772;2023-10-19T16:44:44;98353.38;;;9.91;89.94
19114;BME280;9689;51.052;13.772;2023-10-19T16:49:46;98355.25;;;9.87;89.73
19114;BME280;9689;51.052;13.772;2023-10-19T16:54:47;98352.34;;;9.76;90.46
19114;BME280;9689;51.052;13.772;2023-10-19T16:59:48;98347.22;;;9.75;90.59
19114;BME280;9689;51.052;13.772;2023-10-19T17:04:51;98338.81;;;9.87;89.39
19114;BME280;9689;51.052;13.772;2023-10-19T17:09:52;98343.94;;;9.88;89.02
19114;BME280;9689;51.052;13.772;2023-10-19T17:14:53;98343.19;;;9.86;89.23
19114;BME280;9689;51.052;13.772;2023-10-19T17:19:55;98344.69;;;9.73;88.40
19114;BME280;9689;51.052;13.772;2023-10-19T17:24:56;98346.31;;;9.76;88.95
19114;BME280;9689;51.052;13.772;2023-10-19T17:29:57;98336.91;;;9.73;88.65
19114;BME280;9689;51.052;13.772;2023-10-19T17:35:01;98336.03;;;9.73;89.26
19114;BME280;9689;51.052;13.772;2023-10-19T17:40:07;98341.22;;;9.73;88.70
19114;BME280;9689;51.052;13.772;2023-10-19T17:45:10;98330.69;;;9.76;88.27
19114;BME280;9689;51.052;13.772;2023-10-19T17:50:12;98322.13;;;9.74;89.14
19114;BME280;9689;51.052;13.772;2023-10-19T17:55:14;98324.41;;;9.80;88.65
19114;BME280;9689;51.052;13.772;2023-10-19T18:00:17;98319.09;;;9.83;88.79
19114;BME280;9689;51.052;13.772;2023-10-19T18:05:20;98312.88;;;9.85;88.39
19114;BME280;9689;51.052;13.772;2023-10-19T18:10:23;98297.19;;;9.87;88.42
19114;BME280;9689;51.052;13.772;2023-10-19T18:15:28;98299.41;;;9.77;89.79
19114;BME280;9689;51.052;13.772;2023-10-19T18:20:31;98296.34;;;9.86;89.21
19114;BME280;9689;51.052;13.772;2023-10-19T18:25:32;98308.44;;;9.87;89.39
19114;BME280;9689;51.052;13.772;2023-10-19T18:30:33;98293.47;;;9.93;88.65
19114;BME280;9689;51.052;13.772;2023-10-19T18:35:36;98291.31;;;10.01;88.77
19114;BME280;9689;51.052;13.772;2023-10-19T18:40:38;98292.38;;;9.97;89.66
19114;BME280;9689;51.052;13.772;2023-10-19T18:45:40;98289.56;;;10.01;89.04
19114;BME280;9689;51.052;13.772;2023-10-19T18:50:42;98288.84;;;9.98;89.94
19114;BME280;9689;51.052;13.772;2023-10-19T18:55:49;98269.72;;;9.99;89.85
19114;BME280;9689;51.052;13.772;2023-10-19T19:00:51;98261.84;;;10.00;90.12
19114;BME280;9689;51.052;13.772;2023-10-19T19:05:56;98263.00;;;9.95;90.65
19114;BME280;9689;51.052;13.772;2023-10-19T19:10:57;98260.19;;;9.99;90.77
19114;BME280;9689;51.052;13.772;2023-10-19T19:15:58;98263.53;;;10.01;91.16
19114;BME280;9689;51.052;13.772;2023-10-19T19:21:00;98237.81;;;9.95;91.84
19114;BME280;9689;51.052;13.772;2023-10-19T19:26:03;98235.22;;;9.95;92.23
19114;BME280;9689;51.052;13.772;2023-10-19T19:31:04;98229.00;;;9.98;91.83
19114;BME280;9689;51.052;13.772;2023-10-19T19:36:07;98230.69;;;9.99;91.92
19114;BME280;9689;51.052;13.772;2023-10-19T19:41:08;98249.59;;;10.02;92.95
19114;BME280;9689;51.052;13.772;2023-10-19T19:46:10;98222.19;;;9.95;92.75
19114;BME280;9689;51.052;13.772;2023-10-19T19:51:15;98222.03;;;9.98;93.11
19114;BME280;9689;51.052;13.772;2023-10-19T19:56:17;98212.25;;;9.86;94.50
19114;BME280;9689;51.052;13.772;2023-10-19T20:01:18;98198.88;;;9.94;93.85
19114;BME280;9689;51.052;13.772;2023-10-19T20:06:21;98205.84;;;9.93;94.71
19114;BME280;9689;51.052;13.772;2023-10-19T20:11:21;98228.97;;;9.82;95.03
19114;BME280;9689;51.052;13.772;2023-10-19T20:16:22;98227.03;;;9.85;95.50
19114;BME280;9689;51.052;13.772;2023-10-19T20:21:25;98229.63;;;9.85;95.31
19114;BME280;9689;51.052;13.772;2023-10-19T20:26:26;98222.50;;;9.89;96.07
19114;BME280;9689;51.052;13.772;2023-10-19T20:31:28;98212.19;;;9.87;95.70
19114;BME280;9689;51.052;13.772;2023-10-19T20:36:31;98212.81;;;9.75;97.08
19114;BME280;9689;51.052;13.772;2023-10-19T20:41:32;98220.75;;;9.72;97.81
19114;BME280;9689;51.052;13.772;2023-10-19T20:46:35;98213.03;;;9.71;98.11
19114;BME280;9689;51.052;13.772;2023-10-19T20:51:38;98220.81;;;9.71;98.98
19114;BME280;9689;51.052;13.772;2023-10-19T20:56:38;98204.38;;;9.70;99.02
19114;BME280;9689;51.052;13.772;2023-10-19T21:01:39;98194.75;;;9.72;99.93
19114;BME280;9689;51.052;13.772;2023-10-19T21:06:43;98201.19;;;9.65;100.00
19114;BME280;9689;51.052;13.772;2023-10-19T21:11:44;98200.28;;;9.66;100.00
19114;BME280;9689;51.052;13.772;2023-10-19T21:16:45;98194.81;;;9.71;100.00
19114;BME280;9689;51.052;13.772;2023-10-19T21:21:47;98179.06;;;9.74;100.00
19114;BME280;9689;51.052;13.772;2023-10-19T21:26:47;98196.13;;;9.62;100.00
19114;BME280;9689;51.052;13.772;2023-10-19T21:31:48;98191.38;;;9.70;100.00
19114;BME280;9689;51.052;13.772;2023-10-19T21:36:51;98168.69;;;9.74;100.00
19114;BME280;9689;51.052;13.772;2023-10-19T21:41:52;98161.94;;;9.70;100.00
19114;BME280;9689;51.052;13.772;2023-10-19T21:46:53;98159.13;;;9.74;100.00
19114;BME280;9689;51.052;13.772;2023-10-19T21:51:55;98154.66;;;9.76;100.00
19114;BME280;9689;51.052;13.772;2023-10-19T21:56:56;98166.00;;;9.75;100.00
19114;BME280;9689;51.052;13.772;2023-10-19T22:01:57;98170.28;;;9.76;100.00
19114;BME280;9689;51.052;13.772;2023-10-19T22:07:01;98177.06;;;9.79;100.00
19114;BME280;9689;51.052;13.772;2023-10-19T22:12:02;98172.50;;;9.84;100.00
19114;BME280;9689;51.052;13.772;2023-10-19T22:17:02;98162.38;;;9.78;100.00
19114;BME280;9689;51.052;13.772;2023-10-19T22:22:06;98157.81;;;9.83;100.00
19114;BME280;9689;51.052;13.772;2023-10-19T22:27:07;98147.44;;;9.81;100.00
19114;BME280;9689;51.052;13.772;2023-10-19T22:32:08;98142.09;;;9.84;100.00
19114;BME280;9689;51.052;13.772;2023-10-19T22:37:10;98144.09;;;9.79;100.00
19114;BME280;9689;51.052;13.772;2023-10-19T22:42:11;98153.56;;;9.80;100.00
19114;BME280;9689;51.052;13.772;2023-10-19T22:47:12;98153.53;;;9.82;100.00
19114;BME280;9689;51.052;13.772;2023-10-19T22:52:16;98133.56;;;9.82;100.00
19114;BME280;9689;51.052;13.772;2023-10-19T22:57:17;98124.81;;;9.83;100.00
19114;BME280;9689;51.052;13.772;2023-10-19T23:02:18;98141.00;;;9.88;100.00
19114;BME280;9689;51.052;13.772;2023-10-19T23:07:21;98130.78;;;9.85;100.00
19114;BME280;9689;51.052;13.772;2023-10-19T23:12:22;98127.44;;;9.83;100.00
19114;BME280;9689;51.052;13.772;2023-10-19T23:17:23;98110.06;;;9.84;100.00
19114;BME280;9689;51.052;13.772;2023-10-19T23:22:33;98123.59;;;9.90;100.00
19114;BME280;9689;51.052;13.772;2023-10-19T23:27:34;98125.41;;;9.88;100.00
19114;BME280;9689;51.052;13.772;2023-10-19T23:32:37;98116.75;;;9.88;100.00
19114;BME280;9689;51.052;13.772;2023-10-19T23:37:41;98121.00;;;9.90;100.00
19114;BME280;9689;51.052;13.772;2023-10-19T23:42:41;98113.94;;;9.93;100.00
19114;BME280;9689;51.052;13.772;2023-10-19T23:47:42;98107.97;;;9.90;100.00
19114;BME280;9689;51.052;13.772;2023-10-19T23:52:45;98098.06;;;9.97;100.00
19114;BME280;9689;51.052;13.772;2023-10-19T23:57:46;98093.69;;;9.98;100.00
